createdAt,value
2017-04-24T00:00:14.071Z,63.40
2017-04-24T00:00:35.880Z,63.59
2017-04-24T00:01:02.360Z,63.78
2017-04-24T00:01:24.267Z,63.87
2017-04-24T00:02:23.004Z,63.69
2017-04-24T00:02:44.692Z,63.56
2017-04-24T00:03:15.955Z,63.44
2017-04-24T00:03:37.763Z,63.60
2017-04-24T00:03:59.514Z,64.03
2017-04-24T00:04:30.786Z,64.03
2017-04-24T00:04:52.584Z,64.03
2017-04-24T00:05:14.304Z,63.90
2017-04-24T00:05:45.553Z,63.77
2017-04-24T00:06:07.361Z,63.87
2017-04-24T00:06:29.083Z,64.05
2017-04-24T00:07:00.341Z,64.16
2017-04-24T00:07:22.136Z,64.22
2017-04-24T00:07:48.620Z,64.23
2017-04-24T00:08:10.331Z,64.09
2017-04-24T00:08:32.043Z,64.18
2017-04-24T00:08:53.851Z,64.60
2017-04-24T00:09:15.560Z,64.52
2017-04-24T00:09:37.256Z,64.70
2017-04-24T00:09:58.954Z,64.68
2017-04-24T00:10:20.739Z,64.48
2017-04-24T00:10:47.235Z,64.52
2017-04-24T00:11:08.949Z,64.57
2017-04-24T00:12:11.543Z,64.47
2017-04-24T00:12:33.242Z,64.13
2017-04-24T00:12:54.939Z,63.96
2017-04-24T00:13:16.637Z,63.80
2017-04-24T00:13:38.448Z,63.51
2017-04-24T00:14:00.140Z,63.31
2017-04-24T00:14:31.389Z,63.46
2017-04-24T00:14:53.176Z,63.56
2017-04-24T00:15:19.713Z,63.73
2017-04-24T00:15:41.441Z,63.65
2017-04-24T00:16:03.151Z,63.43
2017-04-24T00:17:01.541Z,63.58
2017-04-24T00:18:04.121Z,63.91
2017-04-24T00:18:25.904Z,64.20
2017-04-24T00:19:24.388Z,64.76
2017-04-24T00:19:50.862Z,64.79
2017-04-24T00:20:49.261Z,64.35
2017-04-24T00:21:20.516Z,64.25
2017-04-24T00:21:42.249Z,64.12
2017-04-24T00:22:08.815Z,63.93
2017-04-24T00:22:30.515Z,63.93
2017-04-24T00:22:52.218Z,63.89
2017-04-24T00:23:50.607Z,63.74
2017-04-24T00:24:21.880Z,63.43
2017-04-24T00:24:43.569Z,63.21
2017-04-24T00:25:10.126Z,62.97
2017-04-24T00:25:34.728Z,63.14
2017-04-24T00:25:56.420Z,63.10
2017-04-24T00:26:18.125Z,62.73
2017-04-24T00:26:39.916Z,62.69
2017-04-24T00:27:06.391Z,62.89
2017-04-24T00:27:28.089Z,63.10
2017-04-24T00:27:59.345Z,63.26
2017-04-24T00:28:21.040Z,63.33
2017-04-24T00:28:52.290Z,63.47
2017-04-24T00:29:14.091Z,63.59
2017-04-24T00:29:40.599Z,63.64
2017-04-24T00:30:03.316Z,63.78
2017-04-24T00:30:25.101Z,63.70
2017-04-24T00:30:56.355Z,63.47
2017-04-24T00:31:18.045Z,63.43
2017-04-24T00:31:44.604Z,63.69
2017-04-24T00:32:06.304Z,63.70
2017-04-24T00:32:37.572Z,63.40
2017-04-24T00:32:59.394Z,63.44
2017-04-24T00:33:25.875Z,63.70
2017-04-24T00:33:47.578Z,63.63
2017-04-24T00:34:09.287Z,63.56
2017-04-24T00:34:31.106Z,63.70
2017-04-24T00:34:53.797Z,63.72
2017-04-24T00:35:20.293Z,63.44
2017-04-24T00:35:42.074Z,63.35
2017-04-24T00:36:03.779Z,63.59
2017-04-24T00:36:25.478Z,63.65
2017-04-24T00:36:47.216Z,63.70
2017-04-24T00:37:49.813Z,63.75
2017-04-24T00:38:21.069Z,63.88
2017-04-24T00:38:42.758Z,63.97
2017-04-24T00:39:14.062Z,64.25
2017-04-24T00:39:35.781Z,64.30
2017-04-24T00:39:57.484Z,64.39
2017-04-24T00:40:19.182Z,64.45
2017-04-24T00:40:40.981Z,64.56
2017-04-24T00:41:02.676Z,64.56
2017-04-24T00:41:24.379Z,64.50
2017-04-24T00:41:46.116Z,64.76
2017-04-24T00:42:12.611Z,64.79
2017-04-24T00:42:34.397Z,64.82
2017-04-24T00:42:56.106Z,64.75
2017-04-24T00:43:22.643Z,64.63
2017-04-24T00:43:44.426Z,64.67
2017-04-24T00:44:15.674Z,64.90
2017-04-24T00:44:37.392Z,64.79
2017-04-24T00:45:08.631Z,64.46
2017-04-24T00:45:30.336Z,64.47
2017-04-24T00:46:01.588Z,64.90
2017-04-24T00:46:23.365Z,65.05
2017-04-24T00:46:45.074Z,64.87
2017-04-24T00:47:43.487Z,64.80
2017-04-24T00:48:14.747Z,65.00
2017-04-24T00:48:36.472Z,65.04
2017-04-24T00:49:07.722Z,64.89
2017-04-24T00:49:29.508Z,65.10
2017-04-24T00:50:00.767Z,65.63
2017-04-24T00:50:22.585Z,65.90
2017-04-24T00:50:53.847Z,66.02
2017-04-24T00:51:15.570Z,66.13
2017-04-24T00:51:37.362Z,66.20
2017-04-24T00:52:08.624Z,66.05
2017-04-24T00:52:30.341Z,66.09
2017-04-24T00:53:35.644Z,66.28
2017-04-24T00:53:57.346Z,66.43
2017-04-24T00:54:23.826Z,66.31
2017-04-24T00:54:45.518Z,66.21
2017-04-24T00:55:16.766Z,66.05
2017-04-24T00:55:38.588Z,65.87
2017-04-24T00:56:00.311Z,66.12
2017-04-24T00:56:26.925Z,66.07
2017-04-24T00:56:48.551Z,65.69
2017-04-24T00:57:10.283Z,65.35
2017-04-24T00:58:08.703Z,65.11
2017-04-24T00:59:11.284Z,65.26
2017-04-24T00:59:33.001Z,65.75
2017-04-24T00:59:54.716Z,65.98
2017-04-24T01:00:16.417Z,66.13
2017-04-24T01:00:38.212Z,66.31
2017-04-24T01:01:45.499Z,66.34
2017-04-24T01:02:07.276Z,66.58
2017-04-24T01:02:28.978Z,66.28
2017-04-24T01:03:00.231Z,66.49
2017-04-24T01:03:22.027Z,66.18
2017-04-24T01:04:24.531Z,66.57
2017-04-24T01:05:22.844Z,66.18
2017-04-24T01:05:54.096Z,66.02
2017-04-24T01:06:15.799Z,66.01
2017-04-24T01:06:37.583Z,65.98
2017-04-24T01:07:04.060Z,65.75
2017-04-24T01:07:25.758Z,65.86
2017-04-24T01:07:47.448Z,66.02
2017-04-24T01:08:18.705Z,66.10
2017-04-24T01:08:40.481Z,66.19
2017-04-24T01:09:02.186Z,66.39
2017-04-24T01:09:28.677Z,66.40
2017-04-24T01:09:50.498Z,66.35
2017-04-24T01:10:16.968Z,66.17
2017-04-24T01:10:38.676Z,65.97
2017-04-24T01:11:05.232Z,65.89
2017-04-24T01:11:26.943Z,66.04
2017-04-24T01:11:48.648Z,66.11
2017-04-24T01:12:10.348Z,66.28
2017-04-24T01:12:32.136Z,66.54
2017-04-24T01:12:53.902Z,66.58
2017-04-24T01:13:52.296Z,66.38
2017-04-24T01:14:14.001Z,66.20
2017-04-24T01:15:12.407Z,65.93
2017-04-24T01:15:34.118Z,66.27
2017-04-24T01:16:32.515Z,66.33
2017-04-24T01:16:54.240Z,66.28
2017-04-24T01:18:01.668Z,66.11
2017-04-24T01:18:23.392Z,66.03
2017-04-24T01:19:21.780Z,65.81
2017-04-24T01:20:29.062Z,66.37
2017-04-24T01:20:50.842Z,66.43
2017-04-24T01:21:12.538Z,66.25
2017-04-24T01:21:39.024Z,65.92
2017-04-24T01:22:00.819Z,65.78
2017-04-24T01:22:27.304Z,65.65
2017-04-24T01:22:48.994Z,65.75
2017-04-24T01:23:20.243Z,65.80
2017-04-24T01:23:42.027Z,65.63
2017-04-24T01:24:13.309Z,65.66
2017-04-24T01:24:35.043Z,65.61
2017-04-24T01:25:06.303Z,66.13
2017-04-24T01:25:27.999Z,66.26
2017-04-24T01:25:59.277Z,66.21
2017-04-24T01:26:20.965Z,66.38
2017-04-24T01:26:52.213Z,66.55
2017-04-24T01:27:14.009Z,66.69
2017-04-24T01:27:40.478Z,66.55
2017-04-24T01:28:02.186Z,66.31
2017-04-24T01:28:28.737Z,65.78
2017-04-24T01:28:50.426Z,66.04
2017-04-24T01:29:12.145Z,66.07
2017-04-24T01:29:38.628Z,66.35
2017-04-24T01:30:00.426Z,66.44
2017-04-24T01:30:22.134Z,66.58
2017-04-24T01:30:48.620Z,66.77
2017-04-24T01:31:10.417Z,67.05
2017-04-24T01:31:32.120Z,66.83
2017-04-24T01:32:30.448Z,66.39
2017-04-24T01:33:28.822Z,66.14
2017-04-24T01:33:50.622Z,66.18
2017-04-24T01:34:48.947Z,66.74
2017-04-24T01:35:20.205Z,66.46
2017-04-24T01:35:41.906Z,66.33
2017-04-24T01:36:08.385Z,66.46
2017-04-24T01:36:30.093Z,66.68
2017-04-24T01:36:56.704Z,67.00
2017-04-24T01:37:18.400Z,66.79
2017-04-24T01:37:40.104Z,66.93
2017-04-24T01:38:38.554Z,67.59
2017-04-24T01:39:05.038Z,67.77
2017-04-24T01:40:07.637Z,67.92
2017-04-24T01:40:29.335Z,68.00
2017-04-24T01:41:27.718Z,67.81
2017-04-24T01:41:49.411Z,67.75
2017-04-24T01:42:48.757Z,67.59
2017-04-24T01:43:20.111Z,67.44
2017-04-24T01:43:41.866Z,67.15
2017-04-24T01:44:03.657Z,67.08
2017-04-24T01:44:30.142Z,67.28
2017-04-24T01:44:51.863Z,67.41
2017-04-24T01:45:23.117Z,67.47
2017-04-24T01:45:44.902Z,67.16
2017-04-24T01:46:06.625Z,66.87
2017-04-24T01:46:33.100Z,66.42
2017-04-24T01:46:54.888Z,66.40
2017-04-24T01:47:16.593Z,66.33
2017-04-24T01:47:43.077Z,66.28
2017-04-24T01:48:04.809Z,66.25
2017-04-24T01:48:26.614Z,66.32
2017-04-24T01:48:53.102Z,66.25
2017-04-24T01:49:14.827Z,66.25
2017-04-24T01:50:22.206Z,66.79
2017-04-24T01:50:43.925Z,66.95
2017-04-24T01:51:05.650Z,66.97
2017-04-24T01:51:36.905Z,67.23
2017-04-24T01:51:58.593Z,67.15
2017-04-24T01:52:20.303Z,67.11
2017-04-24T01:52:46.786Z,67.16
2017-04-24T01:53:08.602Z,66.93
2017-04-24T01:53:30.311Z,66.47
2017-04-24T01:53:56.801Z,66.03
2017-04-24T01:54:18.501Z,66.05
2017-04-24T01:54:45.070Z,65.97
2017-04-24T01:55:06.770Z,65.71
2017-04-24T01:55:38.013Z,65.30
2017-04-24T01:55:59.787Z,65.11
2017-04-24T01:56:21.493Z,64.98
2017-04-24T01:56:47.973Z,65.19
2017-04-24T01:57:09.676Z,65.54
2017-04-24T01:57:31.475Z,65.85
2017-04-24T01:58:29.784Z,66.79
2017-04-24T01:59:01.122Z,66.89
2017-04-24T01:59:22.820Z,66.63
2017-04-24T01:59:54.086Z,66.59
2017-04-24T02:00:15.802Z,66.58
2017-04-24T02:00:47.075Z,66.43
2017-04-24T02:01:08.837Z,66.42
2017-04-24T02:01:40.179Z,66.77
2017-04-24T02:02:01.885Z,66.92
2017-04-24T02:02:33.149Z,67.09
2017-04-24T02:02:54.859Z,67.07
2017-04-24T02:03:16.556Z,67.03
2017-04-24T02:03:38.256Z,66.85
2017-04-24T02:04:00.074Z,66.57
2017-04-24T02:04:31.335Z,66.42
2017-04-24T02:04:53.044Z,66.44
2017-04-24T02:05:51.387Z,66.60
2017-04-24T02:06:22.643Z,67.17
2017-04-24T02:06:44.346Z,67.29
2017-04-24T02:07:06.158Z,67.40
2017-04-24T02:07:27.874Z,67.29
2017-04-24T02:07:49.581Z,67.18
2017-04-24T02:08:11.276Z,67.24
2017-04-24T02:08:37.764Z,67.16
2017-04-24T02:08:59.565Z,67.31
2017-04-24T02:09:21.282Z,67.51
2017-04-24T02:09:42.985Z,67.46
2017-04-24T02:10:04.706Z,67.35
2017-04-24T02:10:35.960Z,67.10
2017-04-24T02:10:57.655Z,66.89
2017-04-24T02:11:24.123Z,66.85
2017-04-24T02:11:45.919Z,67.14
2017-04-24T02:12:53.311Z,67.41
2017-04-24T02:13:15.103Z,67.51
2017-04-24T02:13:36.817Z,67.56
2017-04-24T02:13:58.703Z,67.78
2017-04-24T02:14:20.487Z,67.79
2017-04-24T02:14:47.049Z,67.64
2017-04-24T02:15:08.848Z,67.17
2017-04-24T02:15:40.096Z,66.85
2017-04-24T02:16:01.876Z,66.91
2017-04-24T02:16:28.349Z,66.90
2017-04-24T02:16:50.210Z,66.82
2017-04-24T02:17:12.025Z,66.74
2017-04-24T02:17:38.499Z,66.87
2017-04-24T02:18:00.292Z,66.84
2017-04-24T02:18:26.861Z,66.56
2017-04-24T02:18:48.560Z,66.49
2017-04-24T02:19:15.033Z,66.47
2017-04-24T02:19:36.950Z,66.69
2017-04-24T02:20:03.424Z,67.08
2017-04-24T02:20:25.293Z,67.18
2017-04-24T02:20:47.098Z,67.26
2017-04-24T02:21:13.571Z,67.26
2017-04-24T02:21:35.357Z,67.17
2017-04-24T02:22:01.860Z,67.24
2017-04-24T02:22:23.566Z,67.24
2017-04-24T02:22:50.046Z,67.69
2017-04-24T02:23:57.442Z,67.97
2017-04-24T02:24:19.223Z,67.94
2017-04-24T02:24:40.936Z,67.85
2017-04-24T02:25:02.712Z,67.89
2017-04-24T02:25:24.488Z,68.22
2017-04-24T02:25:46.260Z,68.38
2017-04-24T02:26:07.965Z,68.33
2017-04-24T02:26:29.672Z,68.46
2017-04-24T02:26:51.411Z,68.27
2017-04-24T02:27:13.132Z,67.99
2017-04-24T02:27:44.417Z,68.42
2017-04-24T02:28:32.761Z,68.74
2017-04-24T02:28:54.496Z,68.87
2017-04-24T02:29:16.244Z,68.96
2017-04-24T02:29:37.976Z,68.76
2017-04-24T02:29:59.686Z,68.61
2017-04-24T02:30:21.434Z,68.72
2017-04-24T02:30:43.155Z,68.92
2017-04-24T02:31:04.923Z,69.14
2017-04-24T02:31:26.655Z,69.10
2017-04-24T02:31:48.445Z,68.79
2017-04-24T02:32:10.239Z,68.43
2017-04-24T02:32:31.998Z,68.46
2017-04-24T02:32:53.751Z,68.61
2017-04-24T02:33:15.493Z,68.57
2017-04-24T02:33:37.216Z,68.33
2017-04-24T02:33:58.960Z,68.09
2017-04-24T02:34:20.773Z,68.29
2017-04-24T02:34:42.552Z,68.42
2017-04-24T02:35:04.293Z,68.35
2017-04-24T02:35:26.071Z,68.44
2017-04-24T02:35:47.849Z,68.37
2017-04-24T02:36:09.634Z,68.21
2017-04-24T02:36:31.429Z,68.25
2017-04-24T02:36:53.185Z,68.27
2017-04-24T02:37:14.934Z,68.33
2017-04-24T02:37:36.659Z,68.36
2017-04-24T02:37:58.411Z,68.41
2017-04-24T02:38:20.149Z,68.49
2017-04-24T02:38:41.915Z,68.72
2017-04-24T02:39:03.773Z,68.64
2017-04-24T02:39:25.557Z,68.50
2017-04-24T02:39:47.357Z,68.58
2017-04-24T02:40:09.138Z,68.51
2017-04-24T02:40:30.874Z,68.16
2017-04-24T02:40:52.615Z,67.98
2017-04-24T02:41:14.355Z,67.93
2017-04-24T02:41:36.082Z,68.24
2017-04-24T02:41:57.784Z,68.42
2017-04-24T02:42:19.563Z,68.22
2017-04-24T02:42:41.321Z,68.32
2017-04-24T02:43:03.077Z,68.78
2017-04-24T02:43:24.833Z,68.72
2017-04-24T02:43:46.595Z,68.47
2017-04-24T02:44:08.345Z,68.13
2017-04-24T02:44:30.152Z,68.06
2017-04-24T02:44:51.920Z,67.95
2017-04-24T02:45:13.661Z,68.09
2017-04-24T02:45:35.529Z,68.61
2017-04-24T02:45:57.334Z,68.83
2017-04-24T02:46:19.103Z,68.83
2017-04-24T02:46:40.924Z,68.80
2017-04-24T02:47:02.734Z,68.53
2017-04-24T02:47:24.503Z,67.97
2017-04-24T02:47:46.259Z,68.11
2017-04-24T02:48:08.017Z,68.30
2017-04-24T02:48:29.780Z,68.56
2017-04-24T02:48:51.514Z,68.42
2017-04-24T02:49:13.280Z,68.13
2017-04-24T02:49:35.049Z,68.20
2017-04-24T02:49:56.946Z,68.25
2017-04-24T02:50:18.698Z,67.98
2017-04-24T02:50:40.478Z,67.81
2017-04-24T02:51:02.229Z,67.84
2017-04-24T02:51:23.966Z,67.76
2017-04-24T02:51:45.711Z,67.52
2017-04-24T02:52:07.454Z,67.57
2017-04-24T02:52:29.215Z,67.40
2017-04-24T02:52:50.962Z,67.39
2017-04-24T02:53:12.735Z,67.39
2017-04-24T02:53:34.485Z,67.30
2017-04-24T02:53:56.262Z,67.24
2017-04-24T02:54:17.989Z,67.52
2017-04-24T02:54:49.231Z,67.85
2017-04-24T02:55:11.018Z,68.02
2017-04-24T02:55:32.769Z,67.94
2017-04-24T02:56:04.145Z,67.86
2017-04-24T02:57:06.695Z,67.76
2017-04-24T02:57:28.461Z,67.84
2017-04-24T02:57:50.217Z,67.65
2017-04-24T02:58:12.044Z,67.67
2017-04-24T02:58:33.786Z,67.79
2017-04-24T02:58:55.519Z,67.79
2017-04-24T02:59:17.267Z,67.67
2017-04-24T02:59:38.975Z,67.85
2017-04-24T03:00:00.759Z,68.02
2017-04-24T03:00:22.499Z,67.96
2017-04-24T03:00:44.264Z,67.84
2017-04-24T03:01:06.006Z,67.81
2017-04-24T03:01:27.737Z,67.73
2017-04-24T03:01:49.511Z,67.39
2017-04-24T03:02:11.226Z,67.14
2017-04-24T03:02:33.011Z,67.10
2017-04-24T03:02:54.746Z,67.02
2017-04-24T03:03:16.464Z,67.19
2017-04-24T03:03:38.210Z,67.28
2017-04-24T03:03:59.923Z,67.44
2017-04-24T03:04:21.660Z,67.47
2017-04-24T03:04:43.392Z,67.40
2017-04-24T03:05:05.136Z,67.19
2017-04-24T03:05:26.889Z,67.18
2017-04-24T03:05:48.644Z,67.27
2017-04-24T03:06:10.398Z,67.47
2017-04-24T03:06:32.150Z,67.47
2017-04-24T03:06:53.955Z,67.68
2017-04-24T03:07:15.719Z,67.80
2017-04-24T03:07:37.476Z,68.03
2017-04-24T03:07:59.246Z,68.14
2017-04-24T03:08:20.977Z,68.34
2017-04-24T03:08:42.753Z,68.36
2017-04-24T03:09:04.516Z,68.42
2017-04-24T03:09:26.280Z,68.41
2017-04-24T03:09:48.060Z,68.57
2017-04-24T03:10:09.774Z,68.80
2017-04-24T03:10:31.539Z,68.52
2017-04-24T03:10:53.285Z,67.97
2017-04-24T03:11:15.083Z,67.75
2017-04-24T03:11:36.883Z,67.77
2017-04-24T03:11:58.724Z,67.68
2017-04-24T03:12:20.506Z,67.40
2017-04-24T03:12:42.317Z,67.44
2017-04-24T03:13:04.066Z,67.28
2017-04-24T03:13:25.816Z,67.02
2017-04-24T03:13:47.567Z,67.06
2017-04-24T03:14:50.264Z,67.83
2017-04-24T03:15:12.044Z,68.22
2017-04-24T03:15:33.921Z,68.60
2017-04-24T03:15:55.737Z,68.74
2017-04-24T03:16:17.495Z,68.91
2017-04-24T03:16:39.243Z,68.58
2017-04-24T03:17:01.016Z,68.17
2017-04-24T03:17:22.764Z,67.95
2017-04-24T03:17:44.515Z,67.93
2017-04-24T03:18:06.400Z,67.70
2017-04-24T03:18:28.128Z,67.40
2017-04-24T03:18:49.866Z,67.53
2017-04-24T03:19:11.632Z,67.46
2017-04-24T03:19:33.382Z,67.44
2017-04-24T03:19:55.213Z,67.69
2017-04-24T03:20:16.970Z,67.94
2017-04-24T03:20:38.776Z,68.37
2017-04-24T03:21:05.324Z,68.62
2017-04-24T03:22:07.855Z,68.23
2017-04-24T03:22:29.606Z,68.17
2017-04-24T03:22:51.368Z,68.21
2017-04-24T03:23:13.091Z,68.03
2017-04-24T03:23:34.919Z,68.10
2017-04-24T03:23:56.688Z,68.26
2017-04-24T03:24:18.458Z,68.54
2017-04-24T03:24:40.230Z,68.85
2017-04-24T03:25:38.734Z,68.95
2017-04-24T03:26:10.135Z,68.57
2017-04-24T03:26:31.884Z,68.52
2017-04-24T03:27:30.343Z,67.71
2017-04-24T03:27:52.126Z,67.75
2017-04-24T03:28:13.876Z,67.76
2017-04-24T03:28:35.628Z,67.87
2017-04-24T03:28:57.399Z,68.21
2017-04-24T03:29:19.133Z,68.38
2017-04-24T03:29:40.889Z,68.52
2017-04-24T03:30:02.624Z,68.54
2017-04-24T03:30:24.370Z,68.42
2017-04-24T03:30:46.131Z,68.52
2017-04-24T03:31:07.853Z,68.62
2017-04-24T03:31:29.605Z,68.42
2017-04-24T03:31:51.337Z,68.44
2017-04-24T03:32:13.129Z,68.26
2017-04-24T03:32:34.894Z,68.12
2017-04-24T03:32:56.704Z,68.08
2017-04-24T03:33:18.508Z,68.23
2017-04-24T03:33:40.177Z,68.19
2017-04-24T03:34:01.913Z,67.89
2017-04-24T03:34:23.711Z,67.66
2017-04-24T03:34:45.466Z,67.53
2017-04-24T03:35:07.166Z,67.58
2017-04-24T03:36:09.702Z,67.95
2017-04-24T03:36:31.388Z,68.09
2017-04-24T03:36:53.107Z,67.83
2017-04-24T03:37:55.616Z,67.40
2017-04-24T03:38:17.337Z,67.50
2017-04-24T03:38:39.056Z,67.76
2017-04-24T03:39:10.446Z,67.90
2017-04-24T03:39:32.077Z,67.73
2017-04-24T03:39:53.799Z,67.43
2017-04-24T03:40:15.506Z,67.32
2017-04-24T03:40:37.280Z,67.61
2017-04-24T03:41:35.573Z,68.31
2017-04-24T03:41:57.406Z,68.35
2017-04-24T03:42:59.909Z,68.64
2017-04-24T03:43:58.213Z,69.10
2017-04-24T03:44:24.713Z,69.15
2017-04-24T03:45:32.015Z,68.84
2017-04-24T03:45:53.723Z,69.13
2017-04-24T03:46:15.456Z,69.26
2017-04-24T03:46:46.706Z,69.16
2017-04-24T03:47:08.568Z,69.03
2017-04-24T03:47:30.271Z,69.02
2017-04-24T03:48:01.527Z,69.14
2017-04-24T03:48:23.339Z,69.16
2017-04-24T03:48:49.822Z,68.90
2017-04-24T03:49:11.517Z,68.88
2017-04-24T03:49:38.080Z,69.15
2017-04-24T03:49:59.804Z,68.87
2017-04-24T03:50:21.524Z,68.75
2017-04-24T03:50:48.070Z,68.34
2017-04-24T03:51:09.809Z,68.02
2017-04-24T03:51:33.809Z,68.55
2017-04-24T03:51:55.462Z,68.83
2017-04-24T03:52:17.252Z,69.22
2017-04-24T03:52:48.507Z,69.76
2017-04-24T03:53:10.211Z,69.94
2017-04-24T03:53:36.780Z,70.04
2017-04-24T03:53:58.488Z,70.28
2017-04-24T03:54:24.973Z,69.95
2017-04-24T03:54:46.674Z,69.83
2017-04-24T03:55:17.921Z,69.60
2017-04-24T03:55:39.690Z,69.39
2017-04-24T03:56:06.161Z,68.94
2017-04-24T03:57:04.561Z,68.66
2017-04-24T03:57:26.305Z,68.80
2017-04-24T03:58:24.725Z,68.64
2017-04-24T03:58:48.980Z,68.48
2017-04-24T03:59:20.231Z,68.35
2017-04-24T03:59:42.022Z,68.26
2017-04-24T04:00:03.752Z,68.61
2017-04-24T04:01:07.065Z,68.96
2017-04-24T04:01:28.785Z,69.08
2017-04-24T04:01:50.489Z,69.15
2017-04-24T04:02:12.293Z,68.92
2017-04-24T04:02:38.775Z,68.62
2017-04-24T04:03:00.558Z,68.43
2017-04-24T04:03:22.277Z,68.32
2017-04-24T04:03:43.981Z,68.14
2017-04-24T04:04:05.692Z,68.19
2017-04-24T04:04:32.174Z,68.42
2017-04-24T04:04:53.987Z,68.22
2017-04-24T04:05:25.239Z,68.83
2017-04-24T04:05:46.967Z,69.15
2017-04-24T04:06:08.754Z,69.22
2017-04-24T04:06:39.997Z,69.18
2017-04-24T04:07:01.706Z,69.07
2017-04-24T04:07:23.522Z,68.96
2017-04-24T04:07:50.010Z,68.86
2017-04-24T04:08:11.725Z,68.68
2017-04-24T04:08:38.258Z,68.92
2017-04-24T04:08:59.968Z,69.29
2017-04-24T04:09:21.685Z,69.53
2017-04-24T04:09:43.391Z,69.25
2017-04-24T04:10:05.217Z,68.73
2017-04-24T04:10:26.921Z,68.55
2017-04-24T04:10:48.649Z,68.32
2017-04-24T04:11:10.360Z,68.65
2017-04-24T04:11:32.140Z,68.92
2017-04-24T04:11:53.851Z,68.99
2017-04-24T04:12:15.578Z,68.93
2017-04-24T04:12:37.276Z,68.79
2017-04-24T04:13:08.522Z,68.75
2017-04-24T04:13:30.307Z,68.88
2017-04-24T04:13:56.796Z,68.79
2017-04-24T04:14:18.493Z,68.91
2017-04-24T04:14:45.055Z,69.01
2017-04-24T04:15:06.760Z,68.80
2017-04-24T04:15:28.470Z,68.88
2017-04-24T04:15:54.933Z,68.62
2017-04-24T04:16:16.716Z,68.72
2017-04-24T04:16:38.432Z,68.35
2017-04-24T04:17:36.771Z,67.92
2017-04-24T04:18:03.312Z,67.91
2017-04-24T04:18:27.839Z,68.23
2017-04-24T04:18:49.650Z,68.19
2017-04-24T04:19:16.124Z,68.21
2017-04-24T04:19:37.819Z,68.18
2017-04-24T04:20:04.394Z,68.71
2017-04-24T04:20:26.089Z,68.88
2017-04-24T04:20:52.594Z,68.84
2017-04-24T04:21:14.291Z,68.81
2017-04-24T04:21:40.866Z,68.83
2017-04-24T04:22:02.571Z,68.71
2017-04-24T04:22:33.878Z,68.76
2017-04-24T04:22:55.644Z,68.91
2017-04-24T04:23:22.130Z,69.54
2017-04-24T04:23:43.816Z,70.04
2017-04-24T04:24:05.522Z,70.03
2017-04-24T04:24:32.107Z,69.92
2017-04-24T04:24:53.833Z,70.08
2017-04-24T04:25:20.323Z,70.08
2017-04-24T04:25:42.021Z,70.14
2017-04-24T04:26:03.851Z,70.44
2017-04-24T04:26:30.328Z,70.55
2017-04-24T04:26:52.107Z,70.58
2017-04-24T04:27:18.683Z,70.87
2017-04-24T04:27:40.373Z,70.86
2017-04-24T04:28:02.096Z,70.72
2017-04-24T04:28:23.808Z,70.28
2017-04-24T04:28:45.588Z,69.98
2017-04-24T04:29:12.081Z,70.19
2017-04-24T04:29:33.794Z,70.31
2017-04-24T04:30:00.353Z,70.08
2017-04-24T04:30:22.080Z,70.07
2017-04-24T04:30:48.557Z,70.02
2017-04-24T04:31:10.270Z,69.88
2017-04-24T04:31:32.054Z,69.80
2017-04-24T04:31:58.523Z,69.95
2017-04-24T04:32:20.228Z,70.29
2017-04-24T04:32:46.782Z,70.39
2017-04-24T04:33:08.493Z,70.58
2017-04-24T04:33:30.209Z,70.40
2017-04-24T04:34:01.464Z,70.05
2017-04-24T04:34:23.257Z,70.08
2017-04-24T04:34:54.511Z,70.72
2017-04-24T04:35:16.302Z,70.88
2017-04-24T04:35:38.013Z,70.75
2017-04-24T04:35:59.715Z,70.75
2017-04-24T04:36:21.439Z,70.55
2017-04-24T04:36:43.263Z,70.25
2017-04-24T04:37:14.569Z,70.69
2017-04-24T04:37:36.224Z,70.77
2017-04-24T04:37:58.016Z,70.86
2017-04-24T04:38:19.718Z,70.87
2017-04-24T04:38:41.417Z,70.88
2017-04-24T04:39:12.672Z,70.55
2017-04-24T04:39:34.453Z,70.45
2017-04-24T04:39:56.150Z,70.79
2017-04-24T04:40:22.624Z,70.45
2017-04-24T04:40:44.395Z,70.16
2017-04-24T04:41:10.875Z,69.70
2017-04-24T04:41:32.577Z,69.44
2017-04-24T04:42:03.828Z,69.58
2017-04-24T04:42:25.644Z,69.54
2017-04-24T04:42:52.135Z,69.46
2017-04-24T04:43:13.837Z,69.64
2017-04-24T04:43:35.643Z,69.44
2017-04-24T04:44:02.114Z,69.47
2017-04-24T04:44:23.822Z,69.35
2017-04-24T04:44:45.569Z,69.61
2017-04-24T04:45:12.041Z,69.84
2017-04-24T04:45:33.741Z,70.07
2017-04-24T04:45:55.433Z,70.01
2017-04-24T04:46:22.001Z,69.70
2017-04-24T04:46:43.726Z,69.56
2017-04-24T04:47:05.967Z,69.31
2017-04-24T04:47:32.438Z,69.12
2017-04-24T04:47:54.327Z,69.34
2017-04-24T04:48:16.111Z,69.28
2017-04-24T04:48:47.371Z,69.57
2017-04-24T04:49:09.067Z,69.48
2017-04-24T04:50:16.450Z,69.87
2017-04-24T04:50:38.159Z,69.85
2017-04-24T04:50:59.875Z,69.72
2017-04-24T04:51:26.350Z,69.72
2017-04-24T04:51:48.159Z,69.61
2017-04-24T04:52:14.648Z,69.90
2017-04-24T04:52:37.377Z,70.06
2017-04-24T04:53:03.996Z,70.08
2017-04-24T04:53:25.605Z,69.92
2017-04-24T04:53:52.077Z,69.67
2017-04-24T04:54:13.784Z,69.35
2017-04-24T04:54:35.585Z,69.14
2017-04-24T04:54:57.290Z,68.93
2017-04-24T04:55:19.000Z,68.93
2017-04-24T04:55:50.242Z,69.22
2017-04-24T04:56:12.043Z,69.30
2017-04-24T04:57:14.667Z,69.13
2017-04-24T04:57:36.387Z,69.14
2017-04-24T04:58:34.792Z,68.87
2017-04-24T04:58:56.491Z,68.85
2017-04-24T04:59:22.970Z,69.11
2017-04-24T04:59:44.775Z,69.10
2017-04-24T05:00:11.267Z,68.93
2017-04-24T05:00:32.982Z,69.33
2017-04-24T05:01:04.233Z,69.83
2017-04-24T05:01:26.008Z,69.65
2017-04-24T05:01:57.267Z,69.57
2017-04-24T05:02:55.693Z,68.53
2017-04-24T05:03:26.970Z,68.45
2017-04-24T05:03:48.688Z,68.60
2017-04-24T05:04:10.497Z,68.70
2017-04-24T05:04:37.017Z,69.13
2017-04-24T05:04:58.752Z,69.19
2017-04-24T05:06:15.591Z,69.49
2017-04-24T05:07:22.887Z,69.17
2017-04-24T05:07:44.704Z,69.37
2017-04-24T05:08:15.950Z,69.59
2017-04-24T05:08:37.746Z,69.67
2017-04-24T05:09:04.229Z,69.83
2017-04-24T05:09:25.941Z,69.73
2017-04-24T05:10:28.473Z,69.74
2017-04-24T05:10:50.202Z,69.52
2017-04-24T05:11:48.495Z,69.33
2017-04-24T05:12:46.839Z,69.28
2017-04-24T05:13:08.716Z,69.12
2017-04-24T05:14:07.013Z,69.16
2017-04-24T05:14:38.274Z,68.71
2017-04-24T05:15:00.106Z,68.78
2017-04-24T05:15:26.575Z,68.72
2017-04-24T05:16:19.629Z,69.27
2017-04-24T05:16:46.124Z,69.54
2017-04-24T05:17:07.831Z,69.50
2017-04-24T05:17:29.554Z,69.04
2017-04-24T05:17:56.017Z,68.93
2017-04-24T05:18:17.719Z,68.83
2017-04-24T05:19:16.024Z,69.19
2017-04-24T05:19:47.293Z,68.97
2017-04-24T05:20:08.992Z,68.73
2017-04-24T05:20:35.480Z,68.55
2017-04-24T05:20:57.265Z,68.66
2017-04-24T05:21:59.870Z,68.78
2017-04-24T05:22:21.574Z,68.84
2017-04-24T05:23:28.866Z,68.70
2017-04-24T05:23:50.684Z,68.92
2017-04-24T05:24:12.431Z,68.85
2017-04-24T05:24:34.128Z,68.54
2017-04-24T05:24:55.825Z,68.41
2017-04-24T05:25:17.530Z,68.48
2017-04-24T05:25:39.324Z,68.64
2017-04-24T05:26:01.076Z,68.55
2017-04-24T05:26:22.777Z,68.24
2017-04-24T05:26:44.598Z,68.10
2017-04-24T05:27:06.309Z,68.03
2017-04-24T05:27:28.015Z,67.98
2017-04-24T05:27:49.736Z,68.17
2017-04-24T05:28:11.517Z,68.87
2017-04-24T05:28:37.994Z,69.04
2017-04-24T05:28:59.689Z,69.06
2017-04-24T05:29:21.486Z,68.55
2017-04-24T05:29:49.193Z,68.41
2017-04-24T05:30:10.891Z,68.22
2017-04-24T05:30:37.385Z,68.02
2017-04-24T05:30:59.166Z,67.97
2017-04-24T05:31:25.646Z,67.69
2017-04-24T05:31:47.348Z,67.65
2017-04-24T05:32:13.834Z,67.71
2017-04-24T05:32:35.527Z,67.87
2017-04-24T05:32:57.272Z,67.83
2017-04-24T05:33:19.002Z,67.83
2017-04-24T05:33:40.786Z,67.91
2017-04-24T05:34:39.100Z,68.35
2017-04-24T05:35:00.895Z,68.07
2017-04-24T05:35:27.384Z,67.94
2017-04-24T05:35:49.128Z,68.22
2017-04-24T05:36:15.603Z,68.08
2017-04-24T05:36:37.297Z,68.00
2017-04-24T05:36:58.995Z,67.84
2017-04-24T05:37:57.333Z,67.46
2017-04-24T05:38:28.609Z,67.55
2017-04-24T05:38:50.287Z,67.47
2017-04-24T05:39:21.538Z,67.41
2017-04-24T05:39:43.273Z,67.31
2017-04-24T05:40:50.595Z,67.08
2017-04-24T05:41:17.088Z,67.30
2017-04-24T05:41:38.824Z,67.18
2017-04-24T05:42:00.554Z,67.50
2017-04-24T05:42:22.282Z,68.06
2017-04-24T05:42:44.010Z,68.05
2017-04-24T05:43:05.756Z,67.89
2017-04-24T05:43:37.092Z,67.54